Time;durP1;ratioP1;P1;durP2;ratioP2;P2;SDS_P1;SDS_P2;PMS_P1;PMS_P2;Temp;Humidity;BMP_temperature;BMP_pressure;BME280_temperature;BME280_humidity;BME280_pressure;Samples;Min_cycle;Max_cycle;Signal;HPM_P1;HPM_P2
2022/11/06 00:03:06;;;;;;;;;;;8.80;99.90;;;;;;12566043;28;19925;-83
2022/11/06 00:09:09;;;;;;;;;;;8.90;99.90;;;;;;12595048;28;20369;-83
2022/11/06 00:15:11;;;;;;;;;;;8.80;99.90;;;;;;12571302;28;19925;-83
2022/11/06 00:21:18;;;;;;;;;;;8.80;99.90;;;;;;12601099;28;20214;-84
2022/11/06 00:27:20;;;;;;;;;;;8.80;99.90;;;;;;12571079;28;19931;-84
2022/11/06 00:33:21;;;;;;;;;;;8.70;99.90;;;;;;12574979;28;19949;-83
2022/11/06 00:39:23;;;;;;;;;;;8.70;99.90;;;;;;12579255;28;19929;-83
2022/11/06 00:45:25;;;;;;;;;;;8.70;99.90;;;;;;12578257;28;20296;-83
2022/11/06 00:51:30;;;;;;;;;;;8.70;99.90;;;;;;12580797;28;19924;-82
2022/11/06 00:57:32;;;;;;;;;;;8.80;99.90;;;;;;12582753;28;19925;-82
2022/11/06 01:03:34;;;;;;;;;;;8.70;99.90;;;;;;12576511;28;20300;-82
2022/11/06 01:09:35;;;;;;;;;;;8.70;99.90;;;;;;12578531;28;19925;-83
2022/11/06 01:15:37;;;;;;;;;;;8.70;99.90;;;;;;12571666;28;19932;-83
2022/11/06 01:21:41;;;;;;;;;;;8.70;99.90;;;;;;12563351;28;19940;-83
2022/11/06 01:27:42;;;;;;;;;;;8.70;99.90;;;;;;12564334;28;19925;-83
2022/11/06 01:33:44;;;;;;;;;;;8.70;99.90;;;;;;12571205;28;19932;-83
2022/11/06 01:39:47;;;;;;;;;;;8.60;99.90;;;;;;12569608;28;19928;-82
2022/11/06 01:45:50;;;;;;;;;;;8.60;99.90;;;;;;12563580;28;19929;-83
2022/11/06 01:51:53;;;;;;;;;;;8.50;99.90;;;;;;12574602;28;19936;-84
2022/11/06 01:57:56;;;;;;;;;;;8.50;99.90;;;;;;12576497;28;19932;-83
2022/11/06 02:04:08;;;;;;;;;;;8.50;99.90;;;;;;12578978;28;19936;-84
2022/11/06 02:10:10;;;;;;;;;;;8.40;99.90;;;;;;12572919;28;19925;-84
2022/11/06 02:16:21;;;;;;;;;;;8.40;99.90;;;;;;12586577;28;20376;-83
2022/11/06 02:22:26;;;;;;;;;;;8.40;99.90;;;;;;12594613;28;20368;-83
2022/11/06 02:28:33;;;;;;;;;;;8.40;99.90;;;;;;12571218;28;19932;-82
2022/11/06 02:34:35;;;;;;;;;;;8.40;99.90;;;;;;12573843;28;20031;-82
2022/11/06 02:40:40;;;;;;;;;;;8.40;99.90;;;;;;12591439;28;19928;-84
2022/11/06 02:46:45;;;;;;;;;;;8.30;99.90;;;;;;12580777;28;19924;-84
2022/11/06 02:52:49;;;;;;;;;;;8.40;99.90;;;;;;12563687;28;19928;-83
2022/11/06 02:58:56;;;;;;;;;;;8.50;99.90;;;;;;12580940;28;19929;-83
2022/11/06 03:05:04;;;;;;;;;;;8.40;99.90;;;;;;12582589;28;19935;-83
2022/11/06 03:11:12;;;;;;;;;;;8.20;99.90;;;;;;12580183;28;19933;-83
2022/11/06 03:17:16;;;;;;;;;;;8.10;99.90;;;;;;12585712;28;20368;-82
2022/11/06 03:23:27;;;;;;;;;;;8.20;99.90;;;;;;12576945;28;19939;-83
2022/11/06 03:29:40;;;;;;;;;;;8.20;99.90;;;;;;12576652;28;19944;-83
2022/11/06 03:35:47;;;;;;;;;;;8.10;99.90;;;;;;12575848;28;19998;-84
2022/11/06 03:41:52;;;;;;;;;;;8.10;99.90;;;;;;12578505;28;19952;-83
2022/11/06 03:47:57;;;;;;;;;;;8.00;99.90;;;;;;12579604;28;20273;-83
2022/11/06 03:54:01;;;;;;;;;;;8.00;99.90;;;;;;12588575;28;19929;-83
2022/11/06 04:00:06;;;;;;;;;;;8.00;99.90;;;;;;12583471;28;19925;-83
2022/11/06 04:06:20;;;;;;;;;;;8.00;99.90;;;;;;12574842;28;19924;-83
2022/11/06 04:18:44;;;;;;;;;;;7.90;99.90;;;;;;12587584;28;19939;-84
2022/11/06 04:31:12;;;;;;;;;;;7.90;99.90;;;;;;12583689;28;19935;-83
2022/11/06 04:37:20;;;;;;;;;;;8.00;99.90;;;;;;12582735;28;19925;-84
2022/11/06 04:43:32;;;;;;;;;;;8.00;99.90;;;;;;12572338;28;19929;-84
2022/11/06 04:49:35;;;;;;;;;;;8.10;99.90;;;;;;12576241;28;19925;-83
2022/11/06 04:55:45;;;;;;;;;;;8.10;99.90;;;;;;12579143;28;19925;-83
2022/11/06 05:01:46;;;;;;;;;;;8.20;99.90;;;;;;12571440;28;19936;-83
2022/11/06 05:07:48;;;;;;;;;;;8.20;99.90;;;;;;12577394;28;19925;-83
2022/11/06 05:13:50;;;;;;;;;;;8.20;99.90;;;;;;12572149;28;19935;-84
2022/11/06 05:19:52;;;;;;;;;;;8.20;99.90;;;;;;12579182;28;19929;-84
2022/11/06 05:25:53;;;;;;;;;;;8.10;99.90;;;;;;12571129;28;19928;-82
2022/11/06 05:31:55;;;;;;;;;;;8.00;99.90;;;;;;12582592;28;19929;-83
2022/11/06 05:37:57;;;;;;;;;;;8.10;99.90;;;;;;12588471;28;20337;-83
2022/11/06 05:43:59;;;;;;;;;;;8.00;99.90;;;;;;12574634;28;19929;-83
2022/11/06 05:50:01;;;;;;;;;;;8.00;99.90;;;;;;12590584;28;20376;-83
2022/11/06 05:56:03;;;;;;;;;;;8.00;99.90;;;;;;12596222;28;19936;-82
2022/11/06 06:02:04;;;;;;;;;;;8.00;99.90;;;;;;12590538;28;19924;-83
2022/11/06 06:08:06;;;;;;;;;;;8.00;99.90;;;;;;12587516;28;20367;-83
2022/11/06 06:14:08;;;;;;;;;;;7.90;99.90;;;;;;12574142;28;19952;-83
2022/11/06 06:20:10;;;;;;;;;;;8.00;99.90;;;;;;12588671;28;20359;-83
2022/11/06 06:26:11;;;;;;;;;;;7.90;99.90;;;;;;12586799;28;20280;-84
2022/11/06 06:32:13;;;;;;;;;;;8.00;99.90;;;;;;12582770;28;19924;-86
2022/11/06 06:38:14;;;;;;;;;;;7.90;99.90;;;;;;12584373;28;19943;-83
2022/11/06 06:44:16;;;;;;;;;;;8.00;99.90;;;;;;12585159;28;19925;-84
2022/11/06 06:50:18;;;;;;;;;;;8.00;99.90;;;;;;12592691;28;19928;-84
2022/11/06 06:56:20;;;;;;;;;;;8.10;99.90;;;;;;12586710;28;19928;-84
2022/11/06 07:02:21;;;;;;;;;;;8.30;99.90;;;;;;12575452;28;19925;-84
2022/11/06 07:08:24;;;;;;;;;;;8.40;99.90;;;;;;12588322;28;19935;-84
2022/11/06 07:14:26;;;;;;;;;;;8.40;99.90;;;;;;12576274;28;19932;-84
2022/11/06 07:20:28;;;;;;;;;;;8.60;99.90;;;;;;12581612;28;19931;-85
2022/11/06 07:26:30;;;;;;;;;;;8.60;99.90;;;;;;12587040;28;19929;-84
2022/11/06 07:32:31;;;;;;;;;;;8.70;99.90;;;;;;12588455;28;19930;-85
2022/11/06 07:38:33;;;;;;;;;;;8.80;99.90;;;;;;12578397;28;19928;-85
2022/11/06 07:44:35;;;;;;;;;;;8.80;99.90;;;;;;12580680;28;20601;-85
2022/11/06 07:50:37;;;;;;;;;;;8.90;99.90;;;;;;12598137;28;19925;-84
2022/11/06 07:56:38;;;;;;;;;;;9.10;99.90;;;;;;12579061;28;19931;-84
2022/11/06 08:02:40;;;;;;;;;;;9.10;99.90;;;;;;12577664;28;20307;-84
2022/11/06 08:08:42;;;;;;;;;;;9.20;99.90;;;;;;12587898;28;19925;-84
2022/11/06 08:14:44;;;;;;;;;;;9.20;99.90;;;;;;12583627;28;19925;-84
2022/11/06 08:20:45;;;;;;;;;;;9.30;99.90;;;;;;12578581;28;19951;-84
2022/11/06 08:26:47;;;;;;;;;;;9.30;99.90;;;;;;12578697;28;19932;-84
2022/11/06 08:32:48;;;;;;;;;;;9.40;99.90;;;;;;12586201;28;19924;-84
2022/11/06 08:38:50;;;;;;;;;;;9.40;99.90;;;;;;12584030;28;20388;-84
2022/11/06 08:44:52;;;;;;;;;;;9.50;99.90;;;;;;12580031;28;19932;-85
2022/11/06 08:50:53;;;;;;;;;;;9.50;99.90;;;;;;12580595;28;19935;-84
2022/11/06 08:56:56;;;;;;;;;;;9.60;99.90;;;;;;12584758;28;19932;-84
2022/11/06 09:03:01;;;;;;;;;;;9.80;99.90;;;;;;12572644;28;20603;-84
2022/11/06 09:09:03;;;;;;;;;;;9.90;99.90;;;;;;12582480;28;19928;-84
2022/11/06 09:15:05;;;;;;;;;;;10.00;99.90;;;;;;12570743;28;19924;-84
2022/11/06 09:21:07;;;;;;;;;;;10.10;99.90;;;;;;12582287;28;20287;-84
2022/11/06 09:27:09;;;;;;;;;;;10.30;99.90;;;;;;12588874;28;19924;-84
2022/11/06 09:33:11;;;;;;;;;;;10.50;99.90;;;;;;12597105;28;20930;-87
2022/11/06 09:39:14;;;;;;;;;;;10.60;99.90;;;;;;12592404;28;19925;-84
2022/11/06 09:45:21;;;;;;;;;;;10.80;99.90;;;;;;12590869;28;20376;-85
2022/11/06 09:51:31;;;;;;;;;;;10.80;99.90;;;;;;12592501;28;19932;-84
2022/11/06 09:57:44;;;;;;;;;;;11.00;99.90;;;;;;12601656;28;19932;-85
2022/11/06 10:03:51;;;;;;;;;;;11.20;99.90;;;;;;12601339;28;20027;-84
2022/11/06 10:09:53;;;;;;;;;;;11.30;99.90;;;;;;12589032;28;20296;-85
2022/11/06 10:16:14;;;;;;;;;;;11.50;99.90;;;;;;12612344;28;19928;-85
2022/11/06 10:22:16;;;;;;;;;;;11.60;99.90;;;;;;12629902;28;20397;-87
2022/11/06 10:28:28;;;;;;;;;;;11.70;99.90;;;;;;12646627;28;19925;-86
2022/11/06 10:34:35;;;;;;;;;;;11.70;99.90;;;;;;12636624;28;19975;-86
2022/11/06 10:40:37;;;;;;;;;;;12.00;99.90;;;;;;12619869;28;19944;-86
2022/11/06 10:46:42;;;;;;;;;;;12.20;99.90;;;;;;12630871;28;20019;-85
2022/11/06 10:52:44;;;;;;;;;;;12.40;99.90;;;;;;12618768;28;19929;-87
2022/11/06 10:58:46;;;;;;;;;;;12.60;99.90;;;;;;12602306;28;19925;-85
2022/11/06 11:04:47;;;;;;;;;;;12.40;99.90;;;;;;12589489;28;19929;-85
2022/11/06 11:10:49;;;;;;;;;;;12.10;99.90;;;;;;12590529;28;19928;-85
2022/11/06 11:17:06;;;;;;;;;;;12.50;99.90;;;;;;12582941;28;19950;-85
2022/11/06 11:23:15;;;;;;;;;;;12.60;99.90;;;;;;12576428;28;19932;-84
2022/11/06 11:29:22;;;;;;;;;;;12.10;99.90;;;;;;12574336;28;19956;-85
2022/11/06 11:35:30;;;;;;;;;;;12.00;99.90;;;;;;12572745;28;19936;-85
2022/11/06 11:41:32;;;;;;;;;;;11.90;99.90;;;;;;12574294;28;19928;-85
2022/11/06 11:47:34;;;;;;;;;;;12.00;99.90;;;;;;12586152;28;19924;-85
2022/11/06 11:53:37;;;;;;;;;;;11.80;99.90;;;;;;12581511;28;19935;-84
2022/11/06 11:59:46;;;;;;;;;;;12.10;99.90;;;;;;12582823;28;19931;-85
2022/11/06 12:05:47;;;;;;;;;;;12.20;99.90;;;;;;12575737;28;19932;-85
2022/11/06 12:11:50;;;;;;;;;;;12.10;99.90;;;;;;12589787;28;19925;-84
2022/11/06 12:18:00;;;;;;;;;;;12.00;99.90;;;;;;12572258;28;19935;-86
2022/11/06 12:24:03;;;;;;;;;;;11.90;99.90;;;;;;12575513;28;19939;-84
2022/11/06 12:30:09;;;;;;;;;;;12.30;99.90;;;;;;12574335;28;19925;-85
2022/11/06 12:36:11;;;;;;;;;;;12.90;99.90;;;;;;12580379;28;19932;-85
2022/11/06 12:42:13;;;;;;;;;;;13.10;99.90;;;;;;12580191;28;19928;-85
2022/11/06 12:48:20;;;;;;;;;;;12.60;99.90;;;;;;12580249;28;19930;-84
2022/11/06 12:54:24;;;;;;;;;;;12.30;99.90;;;;;;12567872;28;20030;-85
2022/11/06 13:00:33;;;;;;;;;;;12.30;99.90;;;;;;12579028;28;19931;-85
2022/11/06 13:06:34;;;;;;;;;;;12.20;99.90;;;;;;12577574;28;20275;-85
2022/11/06 13:12:59;;;;;;;;;;;12.00;99.90;;;;;;12578051;28;19931;-86
2022/11/06 13:19:00;;;;;;;;;;;12.10;99.90;;;;;;12551360;28;19936;-85
2022/11/06 13:25:05;;;;;;;;;;;11.90;99.90;;;;;;12572999;28;19933;-85
2022/11/06 13:31:09;;;;;;;;;;;11.70;99.90;;;;;;12583039;28;19928;-85
2022/11/06 13:37:29;;;;;;;;;;;11.50;99.90;;;;;;12580058;28;19969;-85
2022/11/06 13:43:36;;;;;;;;;;;11.30;99.90;;;;;;12578630;28;19925;-85
2022/11/06 13:49:37;;;;;;;;;;;11.30;99.90;;;;;;12574358;28;19925;-85
2022/11/06 13:55:39;;;;;;;;;;;11.40;99.90;;;;;;12582583;28;19924;-85
2022/11/06 14:01:44;;;;;;;;;;;11.40;99.90;;;;;;12575307;28;19939;-84
2022/11/06 14:07:46;;;;;;;;;;;11.40;99.90;;;;;;12582222;28;19924;-84
2022/11/06 14:14:01;;;;;;;;;;;11.30;99.90;;;;;;12583831;28;19925;-84
2022/11/06 14:20:05;;;;;;;;;;;11.20;99.90;;;;;;12584282;28;20034;-84
2022/11/06 14:26:08;;;;;;;;;;;11.20;99.90;;;;;;12584977;28;20410;-85
2022/11/06 14:32:11;;;;;;;;;;;11.10;99.90;;;;;;12586612;28;19931;-85
2022/11/06 14:38:30;;;;;;;;;;;11.10;99.90;;;;;;12591193;28;20504;-84
2022/11/06 14:44:33;;;;;;;;;;;11.10;99.90;;;;;;12591676;28;19928;-85
2022/11/06 14:50:38;;;;;;;;;;;11.00;99.90;;;;;;12591947;28;19924;-84
2022/11/06 14:56:40;;;;;;;;;;;11.00;99.90;;;;;;12586742;28;19929;-85
2022/11/06 15:02:43;;;;;;;;;;;11.00;99.90;;;;;;12579986;28;19928;-85
2022/11/06 15:08:47;;;;;;;;;;;11.00;99.90;;;;;;12577513;28;19925;-85
2022/11/06 15:14:49;;;;;;;;;;;11.00;99.90;;;;;;12566989;28;19925;-84
2022/11/06 15:21:00;;;;;;;;;;;11.00;99.90;;;;;;12585899;28;19951;-85
2022/11/06 15:27:06;;;;;;;;;;;10.90;99.90;;;;;;12582581;28;20140;-85
2022/11/06 15:33:12;;;;;;;;;;;10.80;99.90;;;;;;12572872;28;19932;-83
2022/11/06 15:39:26;;;;;;;;;;;10.80;99.90;;;;;;12583217;28;19924;-84
2022/11/06 15:45:28;;;;;;;;;;;10.80;99.90;;;;;;12583468;28;20296;-84
2022/11/06 15:51:30;;;;;;;;;;;10.80;99.90;;;;;;12583313;28;19924;-84
2022/11/06 15:57:32;;;;;;;;;;;10.80;99.90;;;;;;12580393;28;19989;-84
2022/11/06 16:03:48;;;;;;;;;;;10.70;99.90;;;;;;12573859;28;19928;-85
2022/11/06 16:09:50;;;;;;;;;;;10.70;99.90;;;;;;12563780;28;19996;-85
2022/11/06 16:15:52;;;;;;;;;;;10.60;99.90;;;;;;12576968;28;19956;-85
2022/11/06 16:21:56;;;;;;;;;;;10.60;99.90;;;;;;12570660;28;19933;-83
2022/11/06 16:27:58;;;;;;;;;;;10.60;99.90;;;;;;12577062;28;19924;-84
2022/11/06 16:34:04;;;;;;;;;;;10.50;99.90;;;;;;12570783;28;19933;-85
2022/11/06 16:40:26;;;;;;;;;;;10.50;99.90;;;;;;12577378;28;19928;-83
2022/11/06 16:46:47;;;;;;;;;;;10.60;99.90;;;;;;12581664;28;19925;-84
2022/11/06 16:52:53;;;;;;;;;;;10.50;99.90;;;;;;12578348;28;19942;-83
2022/11/06 16:59:00;;;;;;;;;;;10.50;99.90;;;;;;12572927;28;19936;-84
2022/11/06 17:05:21;;;;;;;;;;;10.50;99.90;;;;;;12566601;28;19928;-83
2022/11/06 17:11:23;;;;;;;;;;;10.40;99.90;;;;;;12577207;28;19928;-83
2022/11/06 17:17:25;;;;;;;;;;;10.50;99.90;;;;;;12565377;28;19925;-83
2022/11/06 17:23:27;;;;;;;;;;;10.40;99.90;;;;;;12567042;28;19929;-83
2022/11/06 17:29:29;;;;;;;;;;;10.30;99.90;;;;;;12576335;28;19925;-84
2022/11/06 17:35:31;;;;;;;;;;;10.30;99.90;;;;;;12566160;28;19932;-84
2022/11/06 17:41:33;;;;;;;;;;;10.40;99.90;;;;;;12576518;28;19969;-83
2022/11/06 17:47:34;;;;;;;;;;;10.40;99.90;;;;;;12587058;28;19932;-83
2022/11/06 17:53:36;;;;;;;;;;;10.30;99.90;;;;;;12594387;28;19932;-83
2022/11/06 17:59:37;;;;;;;;;;;10.30;99.90;;;;;;12589552;28;19924;-83
2022/11/06 18:05:40;;;;;;;;;;;10.40;99.90;;;;;;12577027;28;19928;-83
2022/11/06 18:11:42;;;;;;;;;;;10.40;99.90;;;;;;12578498;28;19924;-83
2022/11/06 18:17:43;;;;;;;;;;;10.30;99.90;;;;;;12583003;28;19925;-83
2022/11/06 18:23:45;;;;;;;;;;;10.20;99.90;;;;;;12587840;28;19924;-84
2022/11/06 18:29:47;;;;;;;;;;;9.90;99.90;;;;;;12580611;28;20050;-83
2022/11/06 18:35:48;;;;;;;;;;;9.70;99.90;;;;;;12585080;28;19925;-83
2022/11/06 18:41:50;;;;;;;;;;;9.40;99.90;;;;;;12584225;28;20308;-82
2022/11/06 18:47:52;;;;;;;;;;;9.20;99.90;;;;;;12587623;28;20287;-83
2022/11/06 18:53:54;;;;;;;;;;;9.20;99.90;;;;;;12579228;28;19924;-84
2022/11/06 18:59:56;;;;;;;;;;;9.00;99.90;;;;;;12578114;28;20016;-83
2022/11/06 19:05:58;;;;;;;;;;;9.00;99.90;;;;;;12577815;28;19925;-82
2022/11/06 19:11:59;;;;;;;;;;;8.90;99.90;;;;;;12577809;28;19928;-83
2022/11/06 19:18:01;;;;;;;;;;;8.90;99.90;;;;;;12578880;28;19931;-83
2022/11/06 19:24:02;;;;;;;;;;;8.80;99.90;;;;;;12581603;28;21021;-83
2022/11/06 19:30:07;;;;;;;;;;;8.80;99.90;;;;;;12581356;28;19932;-83
2022/11/06 19:36:08;;;;;;;;;;;8.60;99.90;;;;;;12572087;28;19932;-83
2022/11/06 19:42:10;;;;;;;;;;;8.60;99.90;;;;;;12578794;28;19925;-83
2022/11/06 19:48:11;;;;;;;;;;;8.60;99.90;;;;;;12582781;28;19935;-82
2022/11/06 19:54:13;;;;;;;;;;;8.60;99.90;;;;;;12575161;28;20280;-82
2022/11/06 20:00:15;;;;;;;;;;;8.60;99.90;;;;;;12579391;28;20368;-83
2022/11/06 20:06:17;;;;;;;;;;;8.60;99.90;;;;;;12579133;28;19928;-82
2022/11/06 20:12:18;;;;;;;;;;;8.60;99.90;;;;;;12577800;28;19925;-83
2022/11/06 20:18:20;;;;;;;;;;;8.70;99.90;;;;;;12579016;28;19924;-83
2022/11/06 20:24:22;;;;;;;;;;;8.80;99.90;;;;;;12576560;28;19929;-82
2022/11/06 20:30:23;;;;;;;;;;;8.80;99.90;;;;;;12573520;28;20035;-82
2022/11/06 20:36:26;;;;;;;;;;;8.90;99.90;;;;;;12574138;28;19928;-83
2022/11/06 20:42:28;;;;;;;;;;;8.80;99.90;;;;;;12575552;28;19929;-82
2022/11/06 20:48:30;;;;;;;;;;;8.90;99.90;;;;;;12584772;28;19929;-82
2022/11/06 20:54:32;;;;;;;;;;;9.00;99.90;;;;;;12576291;28;19948;-82
2022/11/06 21:00:34;;;;;;;;;;;9.00;99.90;;;;;;12579175;28;19932;-83
2022/11/06 21:06:37;;;;;;;;;;;9.10;99.90;;;;;;12575307;28;19929;-82
2022/11/06 21:12:39;;;;;;;;;;;9.10;99.90;;;;;;12575716;28;20422;-82
2022/11/06 21:18:41;;;;;;;;;;;9.20;99.90;;;;;;12567728;28;19944;-82
2022/11/06 21:24:42;;;;;;;;;;;9.20;99.90;;;;;;12571492;28;19936;-83
2022/11/06 21:30:45;;;;;;;;;;;9.20;99.90;;;;;;12576413;28;19932;-82
2022/11/06 21:36:46;;;;;;;;;;;9.30;99.90;;;;;;12590079;28;19925;-82
2022/11/06 21:42:48;;;;;;;;;;;9.30;99.90;;;;;;12577349;28;19931;-82
2022/11/06 21:48:50;;;;;;;;;;;9.40;99.90;;;;;;12572983;28;20445;-82
2022/11/06 22:01:13;;;;;;;;;;;9.60;99.90;;;;;;12568212;28;19924;-82
2022/11/06 22:07:15;;;;;;;;;;;9.60;99.90;;;;;;12595403;28;19936;-82
2022/11/06 22:13:16;;;;;;;;;;;9.60;99.90;;;;;;12572098;28;20391;-82
2022/11/06 22:19:18;;;;;;;;;;;9.70;99.90;;;;;;12571078;28;19924;-82
2022/11/06 22:25:20;;;;;;;;;;;9.70;99.90;;;;;;12560488;28;19932;-82
2022/11/06 22:31:22;;;;;;;;;;;9.80;99.90;;;;;;12595556;28;19933;-84
2022/11/06 22:37:24;;;;;;;;;;;9.90;99.90;;;;;;12582016;28;19928;-83
2022/11/06 22:43:26;;;;;;;;;;;9.90;99.90;;;;;;12584258;28;19932;-83
2022/11/06 22:49:28;;;;;;;;;;;9.90;99.90;;;;;;12579895;28;20849;-82
2022/11/06 22:55:29;;;;;;;;;;;9.90;99.90;;;;;;12584203;28;19924;-82
2022/11/06 23:01:32;;;;;;;;;;;9.90;99.90;;;;;;12581013;28;20301;-82
2022/11/06 23:07:40;;;;;;;;;;;9.90;99.90;;;;;;12577556;28;19928;-82
2022/11/06 23:13:42;;;;;;;;;;;9.90;99.90;;;;;;12571939;28;19932;-83
2022/11/06 23:19:44;;;;;;;;;;;10.10;99.90;;;;;;12585783;28;19928;-83
2022/11/06 23:25:46;;;;;;;;;;;10.10;99.90;;;;;;12580195;28;19928;-82
2022/11/06 23:31:47;;;;;;;;;;;10.20;99.90;;;;;;12578574;28;19932;-83
2022/11/06 23:37:49;;;;;;;;;;;10.20;99.90;;;;;;12588459;28;19925;-83
2022/11/06 23:43:51;;;;;;;;;;;10.20;99.90;;;;;;12585200;28;19947;-83
2022/11/06 23:49:54;;;;;;;;;;;10.30;99.90;;;;;;12572539;28;20131;-83
2022/11/06 23:55:56;;;;;;;;;;;10.30;99.90;;;;;;12574151;28;19935;-82
